sensor_id;sensor_type;location;lat;lon;timestamp;pressure;altitude;pressure_sealevel;temperature;humidity
56825;BME280;42705;50.326;18.772;2022-07-23T00:03:50;98504.84;;;24.71;49.10
56825;BME280;42705;50.326;18.772;2022-07-23T00:09:13;98500.13;;;24.64;49.48
56825;BME280;42705;50.326;18.772;2022-07-23T00:14:34;98506.05;;;24.54;49.41
56825;BME280;42705;50.326;18.772;2022-07-23T00:19:55;98515.47;;;24.45;49.27
56825;BME280;42705;50.326;18.772;2022-07-23T00:25:16;98508.86;;;24.38;49.52
56825;BME280;42705;50.326;18.772;2022-07-23T00:30:37;98505.26;;;24.32;49.61
56825;BME280;42705;50.326;18.772;2022-07-23T00:35:58;98507.81;;;24.27;50.08
56825;BME280;42705;50.326;18.772;2022-07-23T00:41:19;98506.56;;;24.20;49.93
56825;BME280;42705;50.326;18.772;2022-07-23T00:46:44;98502.62;;;24.13;49.87
56825;BME280;42705;50.326;18.772;2022-07-23T00:52:14;98501.11;;;24.06;50.32
56825;BME280;42705;50.326;18.772;2022-07-23T00:57:38;98505.63;;;23.96;49.67
56825;BME280;42705;50.326;18.772;2022-07-23T01:03:00;98500.95;;;23.91;50.00
56825;BME280;42705;50.326;18.772;2022-07-23T01:08:20;98499.27;;;23.88;50.43
56825;BME280;42705;50.326;18.772;2022-07-23T01:13:44;98498.88;;;23.84;50.69
56825;BME280;42705;50.326;18.772;2022-07-23T01:19:05;98493.91;;;23.78;50.78
56825;BME280;42705;50.326;18.772;2022-07-23T01:24:27;98493.27;;;23.74;51.16
56825;BME280;42705;50.326;18.772;2022-07-23T01:29:56;98489.11;;;23.68;51.58
56825;BME280;42705;50.326;18.772;2022-07-23T01:35:18;98483.30;;;23.62;51.48
56825;BME280;42705;50.326;18.772;2022-07-23T01:40:38;98487.17;;;23.57;51.59
56825;BME280;42705;50.326;18.772;2022-07-23T01:46:00;98487.33;;;23.53;51.85
56825;BME280;42705;50.326;18.772;2022-07-23T01:51:22;98486.36;;;23.47;51.83
56825;BME280;42705;50.326;18.772;2022-07-23T01:56:45;98489.19;;;23.43;51.97
56825;BME280;42705;50.326;18.772;2022-07-23T02:02:06;98489.87;;;23.38;52.14
56825;BME280;42705;50.326;18.772;2022-07-23T02:07:27;98493.14;;;23.31;52.14
56825;BME280;42705;50.326;18.772;2022-07-23T02:12:48;98494.00;;;23.25;52.28
56825;BME280;42705;50.326;18.772;2022-07-23T02:18:09;98490.11;;;23.21;52.50
56825;BME280;42705;50.326;18.772;2022-07-23T02:23:30;98492.93;;;23.17;52.68
56825;BME280;42705;50.326;18.772;2022-07-23T02:28:50;98491.15;;;23.10;52.71
56825;BME280;42705;50.326;18.772;2022-07-23T02:34:13;98494.47;;;23.06;52.75
56825;BME280;42705;50.326;18.772;2022-07-23T02:39:35;98483.28;;;22.97;52.91
56825;BME280;42705;50.326;18.772;2022-07-23T02:44:56;98478.79;;;22.91;53.08
56825;BME280;42705;50.326;18.772;2022-07-23T02:50:17;98482.64;;;22.86;53.42
56825;BME280;42705;50.326;18.772;2022-07-23T02:55:38;98483.76;;;22.78;53.22
56825;BME280;42705;50.326;18.772;2022-07-23T03:00:59;98480.91;;;22.73;53.44
56825;BME280;42705;50.326;18.772;2022-07-23T03:06:20;98473.03;;;22.68;53.56
56825;BME280;42705;50.326;18.772;2022-07-23T03:11:41;98492.39;;;22.64;53.54
56825;BME280;42705;50.326;18.772;2022-07-23T03:17:02;98494.30;;;22.57;53.72
56825;BME280;42705;50.326;18.772;2022-07-23T03:22:23;98487.88;;;22.48;54.00
56825;BME280;42705;50.326;18.772;2022-07-23T03:27:44;98485.25;;;22.41;54.10
56825;BME280;42705;50.326;18.772;2022-07-23T03:33:06;98482.18;;;22.38;54.28
56825;BME280;42705;50.326;18.772;2022-07-23T03:38:27;98479.65;;;22.34;54.29
56825;BME280;42705;50.326;18.772;2022-07-23T03:43:48;98486.52;;;22.32;54.45
56825;BME280;42705;50.326;18.772;2022-07-23T03:49:09;98494.32;;;22.34;54.28
56825;BME280;42705;50.326;18.772;2022-07-23T03:54:30;98480.95;;;22.40;54.41
56825;BME280;42705;50.326;18.772;2022-07-23T03:59:51;98487.58;;;22.47;54.38
56825;BME280;42705;50.326;18.772;2022-07-23T04:05:11;98485.17;;;22.55;54.15
56825;BME280;42705;50.326;18.772;2022-07-23T04:10:34;98487.49;;;22.61;53.84
56825;BME280;42705;50.326;18.772;2022-07-23T04:15:56;98491.66;;;22.66;53.58
56825;BME280;42705;50.326;18.772;2022-07-23T04:21:17;98488.61;;;22.72;53.42
56825;BME280;42705;50.326;18.772;2022-07-23T04:26:39;98486.63;;;22.76;53.36
56825;BME280;42705;50.326;18.772;2022-07-23T04:32:00;98479.52;;;22.79;53.43
56825;BME280;42705;50.326;18.772;2022-07-23T04:37:22;98476.80;;;22.86;53.54
56825;BME280;42705;50.326;18.772;2022-07-23T04:42:43;98474.28;;;22.91;53.37
56825;BME280;42705;50.326;18.772;2022-07-23T04:48:04;98476.80;;;22.95;53.15
56825;BME280;42705;50.326;18.772;2022-07-23T04:53:25;98478.09;;;23.02;53.18
56825;BME280;42705;50.326;18.772;2022-07-23T04:58:48;98472.36;;;23.08;53.02
56825;BME280;42705;50.326;18.772;2022-07-23T05:04:09;98470.47;;;23.15;53.01
56825;BME280;42705;50.326;18.772;2022-07-23T05:09:31;98475.20;;;23.22;52.89
56825;BME280;42705;50.326;18.772;2022-07-23T05:14:52;98467.96;;;23.30;52.80
56825;BME280;42705;50.326;18.772;2022-07-23T05:20:14;98478.64;;;23.39;52.85
56825;BME280;42705;50.326;18.772;2022-07-23T05:25:35;98476.70;;;23.46;53.04
56825;BME280;42705;50.326;18.772;2022-07-23T05:30:57;98469.95;;;23.53;52.90
56825;BME280;42705;50.326;18.772;2022-07-23T05:36:18;98469.64;;;23.61;52.77
56825;BME280;42705;50.326;18.772;2022-07-23T05:41:44;98467.48;;;23.70;52.57
56825;BME280;42705;50.326;18.772;2022-07-23T05:47:04;98459.38;;;23.77;52.61
56825;BME280;42705;50.326;18.772;2022-07-23T05:52:25;98452.08;;;23.84;52.58
56825;BME280;42705;50.326;18.772;2022-07-23T05:57:55;98445.61;;;23.92;52.67
56825;BME280;42705;50.326;18.772;2022-07-23T06:03:17;98426.05;;;24.01;52.71
56825;BME280;42705;50.326;18.772;2022-07-23T06:08:38;98410.48;;;24.09;52.92
56825;BME280;42705;50.326;18.772;2022-07-23T06:14:01;98400.49;;;24.17;53.01
56825;BME280;42705;50.326;18.772;2022-07-23T06:19:24;98409.55;;;24.25;52.83
56825;BME280;42705;50.326;18.772;2022-07-23T06:24:45;98406.81;;;24.34;52.87
56825;BME280;42705;50.326;18.772;2022-07-23T06:30:07;98405.34;;;24.41;52.56
56825;BME280;42705;50.326;18.772;2022-07-23T06:35:32;98420.04;;;24.50;52.36
56825;BME280;42705;50.326;18.772;2022-07-23T06:40:54;98427.25;;;24.62;52.26
56825;BME280;42705;50.326;18.772;2022-07-23T06:46:14;98421.61;;;24.73;51.61
56825;BME280;42705;50.326;18.772;2022-07-23T06:51:35;98417.84;;;24.83;51.30
56825;BME280;42705;50.326;18.772;2022-07-23T06:56:56;98428.55;;;24.95;51.12
56825;BME280;42705;50.326;18.772;2022-07-23T07:02:17;98414.31;;;25.06;50.93
56825;BME280;42705;50.326;18.772;2022-07-23T07:07:38;98405.97;;;25.17;50.96
56825;BME280;42705;50.326;18.772;2022-07-23T07:12:59;98412.39;;;25.31;51.21
56825;BME280;42705;50.326;18.772;2022-07-23T07:18:20;98420.69;;;25.43;51.33
56825;BME280;42705;50.326;18.772;2022-07-23T07:23:41;98430.14;;;25.58;51.17
56825;BME280;42705;50.326;18.772;2022-07-23T07:29:02;98408.67;;;25.72;51.02
56825;BME280;42705;50.326;18.772;2022-07-23T07:34:23;98418.31;;;25.88;50.83
56825;BME280;42705;50.326;18.772;2022-07-23T07:39:43;98419.69;;;26.05;50.86
56825;BME280;42705;50.326;18.772;2022-07-23T07:45:05;98426.44;;;26.22;50.71
56825;BME280;42705;50.326;18.772;2022-07-23T07:50:27;98419.42;;;26.36;50.52
56825;BME280;42705;50.326;18.772;2022-07-23T07:55:49;98416.61;;;26.65;50.07
56825;BME280;42705;50.326;18.772;2022-07-23T08:01:09;98416.61;;;26.65;50.07
56825;BME280;42705;50.326;18.772;2022-07-23T08:06:30;98411.92;;;26.75;49.11
56825;BME280;42705;50.326;18.772;2022-07-23T08:11:51;98395.47;;;26.88;48.20
56825;BME280;42705;50.326;18.772;2022-07-23T08:17:12;98384.99;;;27.09;47.79
56825;BME280;42705;50.326;18.772;2022-07-23T08:28:14;98381.27;;;27.35;47.02
56825;BME280;42705;50.326;18.772;2022-07-23T08:33:36;98389.00;;;27.51;46.18
56825;BME280;42705;50.326;18.772;2022-07-23T08:38:57;98388.91;;;27.70;45.08
56825;BME280;42705;50.326;18.772;2022-07-23T08:44:19;98382.35;;;27.86;44.65
56825;BME280;42705;50.326;18.772;2022-07-23T08:49:41;98385.47;;;28.05;43.88
56825;BME280;42705;50.326;18.772;2022-07-23T08:55:02;98383.54;;;28.30;43.13
56825;BME280;42705;50.326;18.772;2022-07-23T09:00:24;98385.89;;;28.62;42.80
56825;BME280;42705;50.326;18.772;2022-07-23T09:05:45;98393.85;;;28.84;41.55
56825;BME280;42705;50.326;18.772;2022-07-23T09:11:12;98387.73;;;28.99;40.89
56825;BME280;42705;50.326;18.772;2022-07-23T09:16:35;98384.52;;;29.08;40.41
56825;BME280;42705;50.326;18.772;2022-07-23T09:21:56;98391.84;;;29.17;39.68
56825;BME280;42705;50.326;18.772;2022-07-23T09:27:18;98388.62;;;29.26;39.64
56825;BME280;42705;50.326;18.772;2022-07-23T09:32:39;98388.19;;;29.44;39.13
56825;BME280;42705;50.326;18.772;2022-07-23T09:38:01;98402.54;;;29.71;37.88
56825;BME280;42705;50.326;18.772;2022-07-23T09:43:27;98390.14;;;29.98;37.67
56825;BME280;42705;50.326;18.772;2022-07-23T09:48:51;98389.09;;;30.17;37.65
56825;BME280;42705;50.326;18.772;2022-07-23T09:54:25;98388.55;;;30.36;38.09
56825;BME280;42705;50.326;18.772;2022-07-23T09:59:52;98380.41;;;30.54;36.76
56825;BME280;42705;50.326;18.772;2022-07-23T10:05:13;98367.69;;;30.75;36.41
56825;BME280;42705;50.326;18.772;2022-07-23T10:10:46;98370.03;;;30.95;35.77
56825;BME280;42705;50.326;18.772;2022-07-23T10:16:26;98366.16;;;31.14;35.56
56825;BME280;42705;50.326;18.772;2022-07-23T10:22:02;98361.02;;;31.26;34.74
56825;BME280;42705;50.326;18.772;2022-07-23T10:33:38;98362.23;;;31.46;34.18
56825;BME280;42705;50.326;18.772;2022-07-23T10:39:24;98352.16;;;31.57;34.19
56825;BME280;42705;50.326;18.772;2022-07-23T10:44:54;98343.17;;;31.62;33.75
56825;BME280;42705;50.326;18.772;2022-07-23T10:50:20;98342.60;;;31.68;33.76
56825;BME280;42705;50.326;18.772;2022-07-23T10:55:47;98336.13;;;31.66;33.50
56825;BME280;42705;50.326;18.772;2022-07-23T11:01:36;98327.70;;;31.70;34.10
56825;BME280;42705;50.326;18.772;2022-07-23T11:23:20;98307.63;;;32.38;33.40
56825;BME280;42705;50.326;18.772;2022-07-23T11:28:41;98307.45;;;32.54;32.40
56825;BME280;42705;50.326;18.772;2022-07-23T11:40:05;98303.28;;;32.64;31.42
56825;BME280;42705;50.326;18.772;2022-07-23T11:45:38;98294.08;;;32.84;31.37
56825;BME280;42705;50.326;18.772;2022-07-23T11:51:01;98290.19;;;33.12;31.33
56825;BME280;42705;50.326;18.772;2022-07-23T11:56:22;98276.61;;;33.31;30.63
56825;BME280;42705;50.326;18.772;2022-07-23T12:13:05;98260.27;;;33.37;29.94
56825;BME280;42705;50.326;18.772;2022-07-23T12:18:27;98266.09;;;33.27;30.18
56825;BME280;42705;50.326;18.772;2022-07-23T12:23:49;98264.39;;;33.15;30.24
56825;BME280;42705;50.326;18.772;2022-07-23T12:29:10;98253.95;;;33.05;29.99
56825;BME280;42705;50.326;18.772;2022-07-23T12:34:31;98246.06;;;32.87;30.18
56825;BME280;42705;50.326;18.772;2022-07-23T12:39:52;98243.52;;;32.72;30.19
56825;BME280;42705;50.326;18.772;2022-07-23T12:45:12;98241.20;;;32.62;30.56
56825;BME280;42705;50.326;18.772;2022-07-23T12:50:49;98231.79;;;32.57;31.07
56825;BME280;42705;50.326;18.772;2022-07-23T12:56:17;98227.13;;;32.63;31.11
56825;BME280;42705;50.326;18.772;2022-07-23T13:01:44;98231.81;;;32.76;31.38
56825;BME280;42705;50.326;18.772;2022-07-23T13:07:19;98235.98;;;32.90;31.19
56825;BME280;42705;50.326;18.772;2022-07-23T13:12:40;98230.66;;;33.02;30.94
56825;BME280;42705;50.326;18.772;2022-07-23T13:18:01;98219.30;;;33.00;30.95
56825;BME280;42705;50.326;18.772;2022-07-23T13:23:22;98214.75;;;32.95;31.37
56825;BME280;42705;50.326;18.772;2022-07-23T13:28:43;98222.61;;;32.97;31.08
56825;BME280;42705;50.326;18.772;2022-07-23T13:34:05;98232.17;;;32.91;30.69
56825;BME280;42705;50.326;18.772;2022-07-23T13:39:26;98223.91;;;32.58;30.71
56825;BME280;42705;50.326;18.772;2022-07-23T13:44:47;98225.52;;;32.38;30.87
56825;BME280;42705;50.326;18.772;2022-07-23T13:50:08;98306.52;;;32.63;31.32
56825;BME280;42705;50.326;18.772;2022-07-23T13:55:30;98300.21;;;31.90;33.21
56825;BME280;42705;50.326;18.772;2022-07-23T14:00:53;98290.47;;;31.09;34.90
56825;BME280;42705;50.326;18.772;2022-07-23T14:06:13;98315.10;;;31.05;35.95
56825;BME280;42705;50.326;18.772;2022-07-23T14:11:34;98323.63;;;32.08;35.84
56825;BME280;42705;50.326;18.772;2022-07-23T14:16:56;98313.95;;;31.99;36.16
56825;BME280;42705;50.326;18.772;2022-07-23T14:22:17;98314.21;;;31.17;37.07
56825;BME280;42705;50.326;18.772;2022-07-23T14:27:38;98299.63;;;30.45;37.87
56825;BME280;42705;50.326;18.772;2022-07-23T14:32:59;98296.20;;;29.64;39.09
56825;BME280;42705;50.326;18.772;2022-07-23T14:38:20;98301.00;;;29.23;40.11
56825;BME280;42705;50.326;18.772;2022-07-23T14:43:41;98277.32;;;29.67;40.29
56825;BME280;42705;50.326;18.772;2022-07-23T14:49:03;98292.42;;;29.60;40.85
56825;BME280;42705;50.326;18.772;2022-07-23T14:54:26;98279.19;;;29.71;41.12
56825;BME280;42705;50.326;18.772;2022-07-23T14:59:47;98293.44;;;29.33;41.62
56825;BME280;42705;50.326;18.772;2022-07-23T15:05:08;98274.34;;;29.97;41.23
56825;BME280;42705;50.326;18.772;2022-07-23T15:10:29;98272.45;;;29.66;41.66
56825;BME280;42705;50.326;18.772;2022-07-23T15:15:50;98281.85;;;29.32;42.04
56825;BME280;42705;50.326;18.772;2022-07-23T15:21:11;98283.56;;;28.75;42.91
56825;BME280;42705;50.326;18.772;2022-07-23T15:26:32;98282.28;;;28.29;43.73
56825;BME280;42705;50.326;18.772;2022-07-23T15:31:53;98276.13;;;27.96;44.33
56825;BME280;42705;50.326;18.772;2022-07-23T15:37:14;98273.95;;;27.58;44.95
56825;BME280;42705;50.326;18.772;2022-07-23T15:42:35;98284.70;;;27.30;45.60
56825;BME280;42705;50.326;18.772;2022-07-23T15:47:56;98288.73;;;27.06;46.00
56825;BME280;42705;50.326;18.772;2022-07-23T15:53:18;98296.69;;;26.76;46.70
56825;BME280;42705;50.326;18.772;2022-07-23T15:58:39;98300.09;;;26.49;47.13
56825;BME280;42705;50.326;18.772;2022-07-23T16:04:00;98310.08;;;26.31;47.70
56825;BME280;42705;50.326;18.772;2022-07-23T16:09:21;98312.91;;;26.22;48.23
56825;BME280;42705;50.326;18.772;2022-07-23T16:14:41;98306.05;;;26.14;48.59
56825;BME280;42705;50.326;18.772;2022-07-23T16:20:04;98315.59;;;26.07;48.95
56825;BME280;42705;50.326;18.772;2022-07-23T16:25:27;98306.88;;;25.97;49.14
56825;BME280;42705;50.326;18.772;2022-07-23T16:30:48;98312.34;;;25.88;49.44
56825;BME280;42705;50.326;18.772;2022-07-23T16:36:09;98325.94;;;25.81;49.67
56825;BME280;42705;50.326;18.772;2022-07-23T16:41:30;98326.31;;;25.73;49.92
56825;BME280;42705;50.326;18.772;2022-07-23T16:46:51;98339.90;;;25.66;50.32
56825;BME280;42705;50.326;18.772;2022-07-23T16:52:11;98353.73;;;25.61;50.30
56825;BME280;42705;50.326;18.772;2022-07-23T16:57:32;98352.05;;;25.57;50.66
56825;BME280;42705;50.326;18.772;2022-07-23T17:02:53;98351.77;;;25.56;50.70
56825;BME280;42705;50.326;18.772;2022-07-23T17:08:14;98342.98;;;25.58;50.85
56825;BME280;42705;50.326;18.772;2022-07-23T17:13:35;98330.17;;;25.63;50.93
56825;BME280;42705;50.326;18.772;2022-07-23T17:18:56;98335.62;;;25.68;51.17
56825;BME280;42705;50.326;18.772;2022-07-23T17:24:17;98342.70;;;25.74;51.04
56825;BME280;42705;50.326;18.772;2022-07-23T17:29:37;98351.42;;;25.81;50.87
56825;BME280;42705;50.326;18.772;2022-07-23T17:34:58;98347.42;;;25.84;50.65
56825;BME280;42705;50.326;18.772;2022-07-23T17:40:19;98358.21;;;25.86;50.70
56825;BME280;42705;50.326;18.772;2022-07-23T17:45:40;98377.28;;;25.88;50.85
56825;BME280;42705;50.326;18.772;2022-07-23T17:51:01;98397.59;;;25.83;50.94
56825;BME280;42705;50.326;18.772;2022-07-23T17:56:23;98405.59;;;25.81;51.08
56825;BME280;42705;50.326;18.772;2022-07-23T18:01:44;98407.61;;;25.74;51.08
56825;BME280;42705;50.326;18.772;2022-07-23T18:07:06;98417.30;;;25.60;51.28
56825;BME280;42705;50.326;18.772;2022-07-23T18:12:27;98435.85;;;25.50;51.57
56825;BME280;42705;50.326;18.772;2022-07-23T18:17:49;98441.85;;;25.42;51.81
56825;BME280;42705;50.326;18.772;2022-07-23T18:23:09;98444.50;;;25.40;52.04
56825;BME280;42705;50.326;18.772;2022-07-23T18:28:30;98439.84;;;25.35;52.18
56825;BME280;42705;50.326;18.772;2022-07-23T18:33:51;98441.40;;;25.34;52.30
56825;BME280;42705;50.326;18.772;2022-07-23T18:39:12;98441.98;;;25.36;52.38
56825;BME280;42705;50.326;18.772;2022-07-23T18:44:36;98455.38;;;25.36;52.46
56825;BME280;42705;50.326;18.772;2022-07-23T18:49:59;98463.20;;;25.37;52.70
56825;BME280;42705;50.326;18.772;2022-07-23T18:55:20;98470.19;;;25.38;52.72
56825;BME280;42705;50.326;18.772;2022-07-23T19:00:41;98475.84;;;25.39;52.72
56825;BME280;42705;50.326;18.772;2022-07-23T19:06:02;98475.55;;;25.38;52.70
56825;BME280;42705;50.326;18.772;2022-07-23T19:11:24;98479.58;;;25.38;52.82
56825;BME280;42705;50.326;18.772;2022-07-23T19:16:45;98484.64;;;25.37;52.94
56825;BME280;42705;50.326;18.772;2022-07-23T19:22:06;98493.27;;;25.39;53.20
56825;BME280;42705;50.326;18.772;2022-07-23T19:27:29;98508.77;;;25.37;53.41
56825;BME280;42705;50.326;18.772;2022-07-23T19:32:50;98516.53;;;25.36;53.82
56825;BME280;42705;50.326;18.772;2022-07-23T19:38:11;98529.06;;;25.33;54.04
56825;BME280;42705;50.326;18.772;2022-07-23T19:43:32;98535.52;;;25.35;54.26
56825;BME280;42705;50.326;18.772;2022-07-23T19:48:53;98541.81;;;25.40;54.58
56825;BME280;42705;50.326;18.772;2022-07-23T19:54:13;98549.38;;;25.43;54.88
56825;BME280;42705;50.326;18.772;2022-07-23T19:59:34;98549.38;;;25.43;55.04
56825;BME280;42705;50.326;18.772;2022-07-23T20:04:55;98544.02;;;25.43;55.23
56825;BME280;42705;50.326;18.772;2022-07-23T20:10:16;98540.77;;;25.41;55.43
56825;BME280;42705;50.326;18.772;2022-07-23T20:15:37;98534.82;;;25.39;55.51
56825;BME280;42705;50.326;18.772;2022-07-23T20:20:58;98521.06;;;25.36;55.70
56825;BME280;42705;50.326;18.772;2022-07-23T20:26:19;98498.75;;;25.33;55.89
56825;BME280;42705;50.326;18.772;2022-07-23T20:31:40;98490.77;;;25.35;56.14
56825;BME280;42705;50.326;18.772;2022-07-23T20:37:02;98478.81;;;25.40;56.37
56825;BME280;42705;50.326;18.772;2022-07-23T20:42:23;98479.09;;;25.41;56.51
56825;BME280;42705;50.326;18.772;2022-07-23T20:47:44;98522.94;;;25.35;56.56
56825;BME280;42705;50.326;18.772;2022-07-23T21:00:18;98533.14;;;24.67;57.89
56825;BME280;42705;50.326;18.772;2022-07-23T21:05:40;98551.11;;;24.05;59.56
56825;BME280;42705;50.326;18.772;2022-07-23T21:11:08;98590.05;;;23.92;60.45
56825;BME280;42705;50.326;18.772;2022-07-23T21:16:36;98583.14;;;23.75;61.03
56825;BME280;42705;50.326;18.772;2022-07-23T21:21:57;98582.82;;;23.55;61.52
56825;BME280;42705;50.326;18.772;2022-07-23T21:27:18;98602.18;;;23.41;61.80
56825;BME280;42705;50.326;18.772;2022-07-23T21:32:39;98602.12;;;23.38;62.21
56825;BME280;42705;50.326;18.772;2022-07-23T21:38:00;98611.91;;;23.35;62.58
56825;BME280;42705;50.326;18.772;2022-07-23T21:43:21;98604.27;;;23.23;62.97
56825;BME280;42705;50.326;18.772;2022-07-23T21:48:42;98610.38;;;23.05;63.10
56825;BME280;42705;50.326;18.772;2022-07-23T21:54:04;98601.73;;;22.93;63.45
56825;BME280;42705;50.326;18.772;2022-07-23T21:59:25;98602.27;;;22.93;63.44
56825;BME280;42705;50.326;18.772;2022-07-23T22:04:46;98616.16;;;22.86;63.54
56825;BME280;42705;50.326;18.772;2022-07-23T22:10:08;98610.79;;;22.76;63.38
56825;BME280;42705;50.326;18.772;2022-07-23T22:15:31;98619.23;;;22.73;63.32
56825;BME280;42705;50.326;18.772;2022-07-23T22:20:53;98619.03;;;22.75;63.20
56825;BME280;42705;50.326;18.772;2022-07-23T22:26:14;98616.73;;;22.78;63.10
56825;BME280;42705;50.326;18.772;2022-07-23T22:31:35;98624.24;;;22.79;62.99
56825;BME280;42705;50.326;18.772;2022-07-23T22:36:56;98621.20;;;22.84;62.82
56825;BME280;42705;50.326;18.772;2022-07-23T22:42:18;98621.20;;;22.84;62.82
56825;BME280;42705;50.326;18.772;2022-07-23T22:47:39;98621.06;;;22.89;62.83
56825;BME280;42705;50.326;18.772;2022-07-23T22:53:00;98626.64;;;22.87;62.58
56825;BME280;42705;50.326;18.772;2022-07-23T22:58:20;98631.16;;;22.87;62.26
56825;BME280;42705;50.326;18.772;2022-07-23T23:03:41;98630.42;;;22.89;62.12
56825;BME280;42705;50.326;18.772;2022-07-23T23:09:02;98629.81;;;22.87;61.99
56825;BME280;42705;50.326;18.772;2022-07-23T23:14:23;98628.98;;;22.77;62.08
56825;BME280;42705;50.326;18.772;2022-07-23T23:19:44;98642.56;;;22.68;62.20
56825;BME280;42705;50.326;18.772;2022-07-23T23:25:06;98650.50;;;22.66;62.50
56825;BME280;42705;50.326;18.772;2022-07-23T23:30:28;98645.19;;;22.59;62.58
56825;BME280;42705;50.326;18.772;2022-07-23T23:35:49;98658.86;;;22.53;62.74
56825;BME280;42705;50.326;18.772;2022-07-23T23:41:10;98661.75;;;22.45;63.04
56825;BME280;42705;50.326;18.772;2022-07-23T23:46:31;98660.06;;;22.35;63.36
56825;BME280;42705;50.326;18.772;2022-07-23T23:51:52;98662.37;;;22.24;63.62
56825;BME280;42705;50.326;18.772;2022-07-23T23:57:12;98662.80;;;22.15;64.05
